Share

Feni, Bangladesh

M.A. Hannan International (VGEG) Elev 13 ft | 22.27 °N, 91.82 °E | Change Station

Current weather conditions updated 58 minutes ago

Haze
Haze
93 °F
Feels Like 105 °F
N
0
Wind Variable Wind from North
Sunrise 5:29 AM
Sunset 6:16 PM
Moon Waning Gibbous

Today is forecast to be Much Warmer than yesterday.

Pressure 29.77 in
Visibility 2.2 miles
Clouds
Heat Index 105 °F
Dew Point 75 °F
Humidity 56%
Rainfall 0.00 in
Snow Depth Not available.
UV Not available.
Pollen Not available.
Air Quality Not available.
Flu Activity Not available.
METAR VGEG 200350Z 00000KT 3500 HZ NSC 34/24 Q1008 NOSIG

More Conditions Fewer Conditions

Pressure 29.77 in
Visibility 2.2 miles
Clouds
Heat Index 105 °F
Dew Point 75 °F
Humidity 56%
Rainfall 0.00 in
Snow Depth Not available.
UV Not available.
Pollen Not available.
Air Quality Not available.
Flu Activity Not available.
METAR VGEG 200350Z 00000KT 3500 HZ NSC 34/24 Q1008 NOSIG

More Conditions Fewer Conditions

10-Day Weather Forecast

Almanac

Astronomy

Apr. 20, 2014 Rise Set
Actual Time 5:29 AM BDT 6:16 PM BDT
Civil Twilight 5:06 AM BDT 6:40 PM BDT
Nautical Twilight 4:39 AM BDT 7:07 PM BDT
Astronomical Twilight 4:11 AM BDT 7:35 PM BDT
Moon 11:10 PM BDT 9:33 AM BDT
Length of Visible Light 13h 33m
Length of Day
12h 46m
Tomorrow will be 1m 14s longer.
Waning Gibbous, 73% of the Moon is Illuminated
Today
Waning Gibbous
Apr 22
Last Quarter
Apr 29
New
May 6
First Quarter
May 14
Full

Yesterday's Extremes

Country Highs Country Lows

Community

  • Sunny day at the coast-Cape Arago Lighthouse
    Sunny day at the coast-Cape Arago Lighthouse
  • Cherry Blossoms
    Cherry Blossoms
  • White-Crowned Sparrow
    White-Crowned Sparrow
  • New Day
    New Day
  • Happy Easter!
    Happy Easter!

WunderPhotos

Upload Photos

1,703,081 photos uploaded!

WunderBlogs® & News

Nearby

Snow Depth

Not available.

Coastal Water Temperatures

Place Temperature
No Stations Reporting

Earthquake Activity

City Distance Mag. Time & Date
No recent earthquake activity has been reported nearby.
Minimum magnitude displayed is 2.5.

Nearby Weather Stations

There are no personal weather stations in this area.

What do you think?

We're not finished. Please let us know what you like, what you don't like, and what you are still missing.